createdAt,value
2018-06-24T00:01:47.286Z,4.90
2018-06-24T00:04:16.549Z,5.20
2018-06-24T00:06:45.847Z,5.40
2018-06-24T00:09:15.025Z,5.27
2018-06-24T00:11:44.205Z,4.83
2018-06-24T00:14:13.455Z,4.80
2018-06-24T00:16:42.543Z,4.60
2018-06-24T00:19:11.769Z,3.93
2018-06-24T00:21:40.927Z,4.27
2018-06-24T00:24:10.353Z,4.00
2018-06-24T00:26:39.561Z,4.77
2018-06-24T00:29:08.788Z,4.00
2018-06-24T00:31:38.085Z,4.33
2018-06-24T00:34:07.278Z,4.23
2018-06-24T00:36:37.487Z,4.30
2018-06-24T00:39:09.015Z,4.20
2018-06-24T00:41:38.549Z,4.63
2018-06-24T00:44:07.749Z,4.57
2018-06-24T00:46:37.764Z,5.00
2018-06-24T00:49:06.952Z,4.07
2018-06-24T00:51:36.163Z,4.43
2018-06-24T00:54:05.311Z,3.67
2018-06-24T00:56:34.530Z,3.40
2018-06-24T00:59:03.723Z,3.20
2018-06-24T01:01:32.881Z,3.67
2018-06-24T01:04:02.613Z,3.63
2018-06-24T01:06:31.748Z,3.90
2018-06-24T01:09:00.892Z,3.80
2018-06-24T01:11:30.702Z,4.47
2018-06-24T01:13:59.873Z,3.97
2018-06-24T01:16:29.085Z,3.57
2018-06-24T01:18:58.273Z,3.63
2018-06-24T01:21:27.469Z,3.67
2018-06-24T01:23:56.617Z,3.50
2018-06-24T01:26:26.684Z,3.97
2018-06-24T01:28:55.852Z,3.80
2018-06-24T01:31:25.146Z,3.23
2018-06-24T01:33:54.303Z,3.33
2018-06-24T01:36:23.462Z,3.90
2018-06-24T01:38:52.591Z,3.60
2018-06-24T01:41:21.743Z,3.97
2018-06-24T01:43:50.969Z,4.10
2018-06-24T01:46:20.212Z,3.57
2018-06-24T01:48:49.390Z,3.40
2018-06-24T01:51:18.589Z,4.17
2018-06-24T01:53:47.846Z,4.07
2018-06-24T01:56:17.049Z,4.23
2018-06-24T01:58:46.282Z,4.47
2018-06-24T02:01:15.478Z,3.60
2018-06-24T02:03:44.840Z,3.97
2018-06-24T02:06:13.981Z,4.27
2018-06-24T02:08:43.108Z,4.63
2018-06-24T02:11:12.241Z,4.60
2018-06-24T02:13:41.341Z,3.83
2018-06-24T02:16:10.480Z,4.00
2018-06-24T02:18:39.707Z,4.40
2018-06-24T02:21:08.835Z,3.67
2018-06-24T02:23:37.996Z,4.10
2018-06-24T02:26:07.209Z,4.53
2018-06-24T02:28:36.538Z,4.03
2018-06-24T02:31:06.000Z,4.07
2018-06-24T02:33:35.132Z,3.60
2018-06-24T02:36:04.281Z,4.13
2018-06-24T02:38:33.413Z,4.13
2018-06-24T02:41:02.610Z,5.33
2018-06-24T02:43:31.706Z,4.30
2018-06-24T02:46:00.949Z,4.00
2018-06-24T02:48:30.076Z,4.50
2018-06-24T02:50:59.220Z,4.37
2018-06-24T02:53:28.380Z,4.60
2018-06-24T02:55:57.722Z,5.17
2018-06-24T02:58:26.887Z,4.30
2018-06-24T03:00:56.068Z,5.00
2018-06-24T03:03:25.169Z,5.07
2018-06-24T03:05:54.361Z,5.70
2018-06-24T03:08:23.488Z,4.93
2018-06-24T03:10:52.604Z,5.20
2018-06-24T03:13:21.877Z,5.27
2018-06-24T03:15:51.290Z,5.60
2018-06-24T03:18:21.061Z,5.20
2018-06-24T03:20:50.285Z,6.93
2018-06-24T03:23:19.585Z,6.13
2018-06-24T03:25:48.728Z,7.03
2018-06-24T03:28:17.903Z,5.33
2018-06-24T03:30:47.074Z,6.60
2018-06-24T03:33:16.195Z,5.83
2018-06-24T03:35:45.306Z,6.00
2018-06-24T03:38:14.530Z,6.20
2018-06-24T03:40:43.657Z,6.43
2018-06-24T03:43:12.861Z,5.93
2018-06-24T03:45:42.145Z,5.17
2018-06-24T03:48:11.328Z,5.27
2018-06-24T03:50:40.457Z,6.00
2018-06-24T03:53:09.654Z,5.37
2018-06-24T03:55:38.839Z,5.97
2018-06-24T03:58:08.027Z,6.33
2018-06-24T04:00:37.167Z,6.10
2018-06-24T04:03:06.337Z,5.90
2018-06-24T04:05:35.543Z,5.37
2018-06-24T04:08:04.711Z,6.20
2018-06-24T04:10:33.842Z,6.20
2018-06-24T04:13:03.309Z,6.40
2018-06-24T04:15:32.441Z,5.93
2018-06-24T04:18:01.680Z,6.13
2018-06-24T04:20:30.826Z,6.07
2018-06-24T04:22:59.926Z,6.00
2018-06-24T04:25:29.074Z,7.67
2018-06-24T04:27:58.194Z,6.17
2018-06-24T04:30:27.341Z,6.53
2018-06-24T04:32:56.574Z,7.07
2018-06-24T04:35:25.733Z,7.23
2018-06-24T04:37:54.937Z,7.70
2018-06-24T04:40:25.002Z,7.30
2018-06-24T04:42:54.188Z,7.20
2018-06-24T04:45:23.344Z,8.07
2018-06-24T04:47:52.543Z,7.87
2018-06-24T04:50:21.738Z,7.53
2018-06-24T04:52:50.881Z,8.50
2018-06-24T04:55:20.062Z,9.83
2018-06-24T04:57:49.243Z,7.80
2018-06-24T05:00:18.419Z,8.20
2018-06-24T05:02:47.584Z,7.90
2018-06-24T05:05:16.710Z,8.80
2018-06-24T05:07:45.827Z,9.10
2018-06-24T05:10:14.976Z,8.47
2018-06-24T05:12:44.155Z,9.00
2018-06-24T05:15:13.294Z,8.90
2018-06-24T05:17:42.451Z,9.27
2018-06-24T05:20:11.630Z,11.40
2018-06-24T05:22:41.836Z,8.27
2018-06-24T05:25:11.006Z,8.40
2018-06-24T05:27:40.168Z,8.90
2018-06-24T05:30:09.366Z,8.97
2018-06-24T05:32:38.491Z,7.60
2018-06-24T05:35:07.649Z,7.80
2018-06-24T05:37:36.790Z,8.63
2018-06-24T05:40:05.972Z,7.60
2018-06-24T05:42:35.154Z,7.53
2018-06-24T05:45:04.283Z,6.87
2018-06-24T05:47:33.403Z,7.20
2018-06-24T05:50:02.535Z,7.13
2018-06-24T05:52:31.657Z,8.03
2018-06-24T05:55:00.798Z,7.13
2018-06-24T05:57:29.977Z,7.93
2018-06-24T05:59:59.102Z,7.33
2018-06-24T06:02:28.462Z,6.80
2018-06-24T06:04:57.590Z,7.33
2018-06-24T06:07:26.782Z,7.40
2018-06-24T06:09:55.938Z,6.77
2018-06-24T06:12:25.089Z,6.20
2018-06-24T06:14:54.241Z,7.23
2018-06-24T06:17:23.382Z,6.20
2018-06-24T06:19:52.579Z,6.00
2018-06-24T06:22:21.838Z,6.70
2018-06-24T06:24:50.975Z,5.83
2018-06-24T06:27:20.123Z,5.80
2018-06-24T06:29:49.259Z,5.80
2018-06-24T06:32:18.388Z,6.30
2018-06-24T06:34:47.318Z,5.63
2018-06-24T06:37:16.425Z,6.80
2018-06-24T06:39:45.608Z,6.17
2018-06-24T06:42:14.798Z,5.90
2018-06-24T06:44:43.939Z,5.83
2018-06-24T06:47:13.416Z,5.87
2018-06-24T06:49:42.694Z,6.37
2018-06-24T06:52:11.855Z,6.17
2018-06-24T06:54:40.977Z,5.93
2018-06-24T06:57:10.548Z,6.50
2018-06-24T06:59:40.927Z,5.47
2018-06-24T07:02:10.369Z,5.80
2018-06-24T07:04:39.491Z,6.00
2018-06-24T07:07:08.726Z,6.60
2018-06-24T07:09:37.923Z,5.20
2018-06-24T07:12:07.237Z,4.87
2018-06-24T07:14:36.435Z,4.70
2018-06-24T07:17:05.883Z,5.73
2018-06-24T07:19:34.983Z,4.73
2018-06-24T07:22:04.157Z,4.73
2018-06-24T07:24:33.370Z,5.70
2018-06-24T07:27:02.613Z,5.00
2018-06-24T07:29:32.049Z,5.30
2018-06-24T07:32:00.925Z,6.10
2018-06-24T07:34:30.081Z,6.47
2018-06-24T07:36:59.218Z,5.90
2018-06-24T07:39:28.360Z,5.00
2018-06-24T07:41:57.447Z,4.87
2018-06-24T07:44:26.552Z,4.80
2018-06-24T07:46:55.783Z,5.07
2018-06-24T07:49:24.917Z,4.70
2018-06-24T07:51:54.110Z,5.50
2018-06-24T07:54:23.247Z,5.37
2018-06-24T07:56:52.377Z,5.23
2018-06-24T07:59:21.522Z,4.43
2018-06-24T08:01:50.727Z,5.50
2018-06-24T08:04:19.852Z,3.70
2018-06-24T08:06:49.273Z,4.17
2018-06-24T08:09:18.509Z,4.10
2018-06-24T08:11:47.706Z,3.90
2018-06-24T08:14:16.840Z,4.80
2018-06-24T08:16:45.967Z,4.13
2018-06-24T08:19:15.120Z,4.30
2018-06-24T08:21:44.277Z,4.73
2018-06-24T08:24:13.452Z,4.33
2018-06-24T08:26:43.285Z,4.67
2018-06-24T08:29:13.479Z,3.83
2018-06-24T08:31:42.644Z,4.50
2018-06-24T08:34:11.823Z,4.40
2018-06-24T08:36:40.964Z,4.90
2018-06-24T08:39:11.125Z,3.97
2018-06-24T08:41:40.323Z,4.50
2018-06-24T08:44:09.547Z,5.10
2018-06-24T08:46:38.949Z,4.40
2018-06-24T08:49:08.653Z,3.67
2018-06-24T08:51:37.749Z,4.20
2018-06-24T08:54:06.911Z,4.63
2018-06-24T08:56:36.121Z,4.73
2018-06-24T08:59:05.269Z,4.00
2018-06-24T09:01:34.897Z,5.60
2018-06-24T09:04:04.868Z,4.37
2018-06-24T09:06:34.040Z,4.10
2018-06-24T09:09:03.497Z,4.43
2018-06-24T09:11:32.647Z,4.60
2018-06-24T09:14:01.792Z,5.33
2018-06-24T09:16:30.903Z,4.00
2018-06-24T09:19:00.067Z,3.50
2018-06-24T09:21:29.210Z,3.70
2018-06-24T09:23:58.347Z,4.20
2018-06-24T09:26:27.606Z,3.63
2018-06-24T09:28:56.786Z,3.20
2018-06-24T09:31:26.047Z,3.80
2018-06-24T09:33:55.248Z,3.73
2018-06-24T09:36:25.003Z,2.60
2018-06-24T09:38:54.173Z,2.67
2018-06-24T09:41:23.345Z,3.77
2018-06-24T09:43:52.641Z,3.40
2018-06-24T09:46:21.768Z,2.93
2018-06-24T09:48:50.978Z,3.40
2018-06-24T09:51:20.234Z,2.87
2018-06-24T09:53:49.434Z,3.33
2018-06-24T09:56:18.641Z,4.77
2018-06-24T09:58:47.829Z,3.43
2018-06-24T10:01:17.109Z,2.90
2018-06-24T10:03:46.467Z,3.30
2018-06-24T10:06:15.790Z,3.40
2018-06-24T10:08:45.051Z,3.60
2018-06-24T10:11:14.399Z,4.23
2018-06-24T10:13:43.582Z,3.87
2018-06-24T10:16:14.100Z,2.70
2018-06-24T10:18:43.855Z,3.70
2018-06-24T10:21:13.933Z,3.40
2018-06-24T10:23:43.465Z,2.80
2018-06-24T10:26:12.836Z,2.60
2018-06-24T10:28:42.460Z,3.30
2018-06-24T10:31:12.026Z,3.70
2018-06-24T10:33:42.222Z,2.60
2018-06-24T10:36:11.678Z,2.50
2018-06-24T10:38:40.775Z,2.33
2018-06-24T10:41:10.424Z,2.03
2018-06-24T10:43:39.957Z,2.50
2018-06-24T10:46:10.163Z,3.17
2018-06-24T10:48:43.581Z,3.23
2018-06-24T10:51:15.383Z,3.50
2018-06-24T10:53:44.711Z,2.50
2018-06-24T10:56:14.111Z,2.40
2018-06-24T10:58:43.271Z,2.10
2018-06-24T11:01:12.610Z,1.70
2018-06-24T11:03:41.770Z,2.00
2018-06-24T11:06:10.946Z,2.50
2018-06-24T11:08:40.105Z,2.13
2018-06-24T11:11:09.269Z,2.30
2018-06-24T11:13:38.490Z,2.87
2018-06-24T11:16:07.660Z,2.70
2018-06-24T11:18:36.818Z,2.10
2018-06-24T11:21:06.268Z,1.83
2018-06-24T11:23:35.455Z,1.90
2018-06-24T11:26:04.661Z,1.40
2018-06-24T11:39:40.598Z,1.40
2018-06-24T11:42:09.728Z,1.80
2018-06-24T11:44:38.897Z,1.40
2018-06-24T11:47:08.065Z,2.20
2018-06-24T11:49:37.272Z,2.33
2018-06-24T11:52:06.761Z,1.60
2018-06-24T11:54:35.910Z,1.90
2018-06-24T11:57:05.215Z,2.00
2018-06-24T11:59:34.428Z,1.47
2018-06-24T12:02:03.683Z,1.50
2018-06-24T12:04:33.077Z,2.00
2018-06-24T12:07:02.243Z,1.67
2018-06-24T12:09:31.515Z,1.70
2018-06-24T12:12:00.658Z,1.73
2018-06-24T12:14:29.810Z,1.90
2018-06-24T12:16:59.579Z,2.33
2018-06-24T12:19:28.721Z,1.77
2018-06-24T12:21:58.762Z,2.40
2018-06-24T12:24:27.935Z,3.13
2018-06-24T12:26:57.173Z,3.00
2018-06-24T12:29:26.501Z,3.47
2018-06-24T12:31:55.939Z,4.13
2018-06-24T12:34:25.889Z,3.63
2018-06-24T12:36:55.346Z,3.30
2018-06-24T12:39:24.856Z,3.80
2018-06-24T12:41:54.311Z,3.43
2018-06-24T12:44:23.676Z,2.80
2018-06-24T12:46:53.258Z,2.80
2018-06-24T12:49:22.938Z,3.00
2018-06-24T12:51:52.102Z,2.50
2018-06-24T12:54:21.535Z,3.43
2018-06-24T12:56:51.426Z,2.90
2018-06-24T12:59:20.865Z,2.40
2018-06-24T13:01:49.921Z,3.20
2018-06-24T13:04:19.278Z,2.40
2018-06-24T13:06:48.308Z,2.27
2018-06-24T13:09:17.617Z,2.30
2018-06-24T13:11:47.428Z,1.97
2018-06-24T13:14:16.658Z,2.13
2018-06-24T13:16:45.806Z,2.37
2018-06-24T13:19:15.083Z,7.80
2018-06-24T13:21:44.375Z,1.93
2018-06-24T13:24:20.577Z,2.03
2018-06-24T13:26:49.944Z,3.13
2018-06-24T13:29:19.104Z,2.33
2018-06-24T13:31:48.393Z,1.80
2018-06-24T13:34:17.652Z,2.47
2018-06-24T13:36:47.461Z,2.53
2018-06-24T13:39:16.720Z,2.67
2018-06-24T13:41:45.939Z,1.97
2018-06-24T13:44:15.485Z,2.37
2018-06-24T13:46:44.830Z,2.30
2018-06-24T13:49:14.020Z,1.97
2018-06-24T13:51:43.925Z,3.10
2018-06-24T13:54:13.388Z,2.20
2018-06-24T13:56:42.766Z,2.63
2018-06-24T13:59:12.091Z,2.30
2018-06-24T14:01:41.544Z,2.53
2018-06-24T14:04:10.698Z,2.43
2018-06-24T14:06:39.966Z,2.93
2018-06-24T14:09:12.417Z,2.87
2018-06-24T14:11:41.773Z,4.13
2018-06-24T14:14:11.084Z,3.83
2018-06-24T14:16:40.797Z,2.83
2018-06-24T14:19:10.233Z,3.73
2018-06-24T14:21:39.479Z,3.10
2018-06-24T14:24:08.863Z,3.60
2018-06-24T14:26:38.050Z,3.27
2018-06-24T14:29:07.333Z,3.10
2018-06-24T14:31:36.562Z,3.20
2018-06-24T14:34:06.149Z,5.40
2018-06-24T14:36:35.324Z,3.20
2018-06-24T14:39:07.720Z,3.40
2018-06-24T14:41:36.984Z,3.03
2018-06-24T14:44:06.539Z,3.97
2018-06-24T14:46:36.235Z,4.83
2018-06-24T14:49:05.720Z,3.30
2018-06-24T14:51:34.999Z,2.87
2018-06-24T14:54:04.273Z,2.37
2018-06-24T14:56:33.487Z,3.00
2018-06-24T14:59:02.766Z,2.47
2018-06-24T15:01:32.138Z,3.00
2018-06-24T15:04:01.234Z,2.20
2018-06-24T15:06:30.565Z,3.70
2018-06-24T15:08:59.823Z,2.80
2018-06-24T15:11:29.147Z,3.27
2018-06-24T15:13:58.612Z,3.00
2018-06-24T15:16:28.251Z,3.40
2018-06-24T15:18:57.555Z,3.03
2018-06-24T15:21:26.934Z,2.90
2018-06-24T15:23:56.342Z,3.40
2018-06-24T15:26:25.733Z,2.93
2018-06-24T15:28:55.134Z,3.07
2018-06-24T15:31:24.441Z,2.97
2018-06-24T15:33:53.870Z,3.00
2018-06-24T15:36:23.065Z,2.80
2018-06-24T15:38:52.393Z,3.90
2018-06-24T15:41:21.662Z,3.90
2018-06-24T15:43:50.999Z,4.17
2018-06-24T15:46:20.292Z,3.23
2018-06-24T15:48:50.227Z,2.73
2018-06-24T15:51:20.568Z,3.67
2018-06-24T15:53:50.184Z,2.73
2018-06-24T15:56:21.943Z,2.80
2018-06-24T15:58:51.347Z,3.80
2018-06-24T16:01:21.070Z,3.03
2018-06-24T16:03:50.850Z,4.50
2018-06-24T16:06:20.944Z,3.90
2018-06-24T16:08:51.541Z,3.90
2018-06-24T16:11:21.743Z,3.77
2018-06-24T16:13:51.128Z,4.70
2018-06-24T16:16:20.428Z,5.00
2018-06-24T16:18:51.091Z,5.47
2018-06-24T16:21:20.715Z,4.77
2018-06-24T16:23:49.683Z,4.27
2018-06-24T16:26:18.881Z,3.60
2018-06-24T16:28:48.252Z,4.30
2018-06-24T16:31:17.529Z,5.43
2018-06-24T16:33:46.740Z,4.77
2018-06-24T16:36:16.102Z,4.37
2018-06-24T16:38:45.520Z,3.60
2018-06-24T16:41:14.794Z,4.27
2018-06-24T16:43:44.317Z,4.97
2018-06-24T16:46:13.602Z,4.90
2018-06-24T16:48:43.340Z,5.93
2018-06-24T16:51:12.930Z,4.70
2018-06-24T16:53:42.597Z,5.50
2018-06-24T16:56:12.117Z,5.10
2018-06-24T16:58:41.353Z,5.47
2018-06-24T17:01:10.530Z,4.63
2018-06-24T17:03:39.871Z,4.80
2018-06-24T17:06:09.054Z,5.70
2018-06-24T17:08:38.210Z,6.20
2018-06-24T17:11:07.381Z,5.70
2018-06-24T17:13:36.531Z,5.10
2018-06-24T17:16:06.053Z,5.00
2018-06-24T17:18:36.272Z,5.67
2018-06-24T17:21:05.538Z,4.90
2018-06-24T17:23:34.788Z,4.60
2018-06-24T17:26:04.002Z,5.80
2018-06-24T17:28:33.287Z,5.40
2018-06-24T17:31:02.689Z,5.30
2018-06-24T17:33:31.925Z,5.33
2018-06-24T17:36:01.970Z,5.97
2018-06-24T17:38:31.286Z,4.77
2018-06-24T17:41:00.488Z,5.40
2018-06-24T17:43:29.617Z,5.70
2018-06-24T17:45:58.795Z,5.70
2018-06-24T17:48:28.012Z,5.40
2018-06-24T17:50:57.140Z,5.57
2018-06-24T17:53:26.504Z,5.70
2018-06-24T17:55:55.659Z,5.13
2018-06-24T17:58:24.809Z,5.90
2018-06-24T18:00:53.964Z,4.80
2018-06-24T18:03:23.519Z,5.30
2018-06-24T18:05:52.726Z,6.03
2018-06-24T18:08:21.915Z,4.67
2018-06-24T18:10:51.145Z,5.47
2018-06-24T18:13:20.517Z,4.83
2018-06-24T18:15:49.877Z,4.70
2018-06-24T18:18:19.063Z,4.80
2018-06-24T18:20:48.240Z,5.07
2018-06-24T18:23:17.456Z,4.60
2018-06-24T18:25:46.568Z,4.70
2018-06-24T18:28:15.714Z,4.70
2018-06-24T18:30:44.841Z,3.70
2018-06-24T18:33:14.185Z,4.37
2018-06-24T18:35:43.358Z,4.57
2018-06-24T18:38:12.526Z,5.07
2018-06-24T18:40:41.683Z,3.30
2018-06-24T18:43:10.960Z,4.00
2018-06-24T18:45:40.371Z,3.73
2018-06-24T18:48:09.397Z,4.10
2018-06-24T18:50:39.797Z,4.57
2018-06-24T18:53:09.423Z,4.13
2018-06-24T18:55:39.714Z,3.70
2018-06-24T18:58:09.759Z,3.50
2018-06-24T19:00:39.717Z,3.67
2018-06-24T19:03:09.605Z,3.60
2018-06-24T19:05:39.859Z,3.60
2018-06-24T19:08:09.076Z,4.20
2018-06-24T19:10:38.226Z,3.97
2018-06-24T19:13:07.387Z,3.63
2018-06-24T19:15:36.823Z,3.90
2018-06-24T19:18:07.233Z,3.67
2018-06-24T19:20:36.439Z,3.90
2018-06-24T19:23:08.043Z,3.83
2018-06-24T19:25:37.230Z,3.40
2018-06-24T19:28:06.588Z,4.87
2018-06-24T19:30:35.753Z,4.03
2018-06-24T19:33:04.960Z,4.27
2018-06-24T19:35:34.214Z,4.27
2018-06-24T19:38:03.564Z,3.67
2018-06-24T19:40:32.751Z,4.10
2018-06-24T19:43:02.019Z,4.07
2018-06-24T19:45:31.175Z,3.90
2018-06-24T19:48:00.304Z,3.50
2018-06-24T19:50:29.491Z,4.10
2018-06-24T19:52:58.637Z,3.60
2018-06-24T19:55:27.801Z,3.73
2018-06-24T19:57:57.001Z,4.33
2018-06-24T20:00:26.140Z,3.70
2018-06-24T20:02:55.277Z,4.63
2018-06-24T20:05:24.450Z,3.83
2018-06-24T20:07:53.655Z,4.23
2018-06-24T20:10:22.785Z,4.13
2018-06-24T20:12:51.939Z,5.10
2018-06-24T20:15:21.192Z,4.77
2018-06-24T20:17:50.318Z,4.40
2018-06-24T20:20:19.449Z,5.40
2018-06-24T20:22:48.668Z,4.87
2018-06-24T20:25:17.833Z,4.33
2018-06-24T20:27:46.966Z,5.00
2018-06-24T20:30:16.149Z,5.73
2018-06-24T20:32:45.302Z,6.10
2018-06-24T20:35:14.461Z,5.73
2018-06-24T20:37:43.623Z,33.17
2018-06-24T20:40:13.816Z,5.80
2018-06-24T20:42:43.118Z,11.07
2018-06-24T20:45:12.382Z,6.43
2018-06-24T20:47:41.595Z,5.40
2018-06-24T20:50:10.900Z,5.57
2018-06-24T20:52:40.048Z,5.03
2018-06-24T20:55:09.321Z,5.20
2018-06-24T20:57:38.473Z,5.53
2018-06-24T21:00:08.154Z,5.00
2018-06-24T21:02:37.352Z,6.10
2018-06-24T21:05:06.655Z,5.70
2018-06-24T21:07:35.786Z,6.40
2018-06-24T21:10:04.920Z,5.33
2018-06-24T21:12:34.120Z,5.43
2018-06-24T21:15:04.278Z,5.97
2018-06-24T21:17:33.509Z,5.93
2018-06-24T21:20:02.660Z,6.07
2018-06-24T21:22:31.802Z,6.03
2018-06-24T21:25:01.018Z,5.90
2018-06-24T21:27:30.162Z,5.77
2018-06-24T21:29:59.384Z,6.20
2018-06-24T21:32:28.552Z,7.13
2018-06-24T21:34:57.706Z,6.13
2018-06-24T21:37:26.850Z,5.83
2018-06-24T21:39:56.462Z,6.40
2018-06-24T21:42:25.703Z,6.70
2018-06-24T21:44:54.951Z,7.03
2018-06-24T21:47:24.092Z,6.67
2018-06-24T21:49:53.358Z,7.10
2018-06-24T21:52:22.469Z,6.93
2018-06-24T21:54:51.901Z,7.20
2018-06-24T21:57:21.033Z,6.93
2018-06-24T21:59:50.141Z,7.40
2018-06-24T22:02:19.257Z,6.93
2018-06-24T22:04:48.514Z,6.80
2018-06-24T22:07:17.645Z,7.37
2018-06-24T22:09:46.776Z,7.00
2018-06-24T22:12:15.909Z,7.80
2018-06-24T22:14:45.018Z,10.33
2018-06-24T22:17:14.177Z,9.67
2018-06-24T22:19:43.358Z,7.67
2018-06-24T22:22:12.477Z,7.87
2018-06-24T22:24:41.645Z,7.20
2018-06-24T22:27:10.806Z,7.13
2018-06-24T22:29:39.956Z,8.43
2018-06-24T22:32:09.135Z,7.17
2018-06-24T22:34:38.398Z,7.30
2018-06-24T22:37:07.558Z,7.87
2018-06-24T22:39:36.696Z,7.10
2018-06-24T22:42:05.801Z,7.87
2018-06-24T22:44:34.982Z,7.17
2018-06-24T22:47:04.110Z,7.53
2018-06-24T22:49:33.197Z,7.50
2018-06-24T22:52:02.318Z,6.43
2018-06-24T22:54:31.727Z,7.70
2018-06-24T22:57:00.941Z,6.93
2018-06-24T22:59:47.433Z,6.87
2018-06-24T23:02:16.750Z,7.13
2018-06-24T23:04:45.986Z,7.10
2018-06-24T23:07:15.099Z,7.27
2018-06-24T23:09:44.229Z,7.10
2018-06-24T23:12:13.353Z,9.10
2018-06-24T23:14:42.490Z,7.80
2018-06-24T23:17:11.614Z,8.43
2018-06-24T23:19:40.769Z,9.37
2018-06-24T23:22:09.984Z,8.67
2018-06-24T23:24:39.144Z,10.50
2018-06-24T23:27:08.351Z,10.43
2018-06-24T23:29:37.507Z,11.50
2018-06-24T23:32:06.679Z,12.93
2018-06-24T23:34:35.886Z,11.07
2018-06-24T23:37:05.058Z,10.50
2018-06-24T23:39:34.353Z,10.13
2018-06-24T23:42:03.545Z,10.50
2018-06-24T23:44:32.679Z,10.33
2018-06-24T23:47:01.841Z,10.77
2018-06-24T23:49:31.424Z,9.93
2018-06-24T23:52:00.776Z,10.17
2018-06-24T23:54:30.344Z,9.57
2018-06-24T23:56:59.625Z,9.67
2018-06-24T23:59:28.952Z,9.67
